sensor_id;sensor_type;location;lat;lon;timestamp;P1;durP1;ratioP1;P2;durP2;ratioP2
3527;SDS011;1778;47.966;7.854;2023-03-21T00:00:24;1.97;;;1.97;;
3527;SDS011;1778;47.966;7.854;2023-03-21T00:01:25;1.70;;;1.70;;
3527;SDS011;1778;47.966;7.854;2023-03-21T00:02:27;1.87;;;1.87;;
3527;SDS011;1778;47.966;7.854;2023-03-21T00:03:29;1.70;;;1.70;;
3527;SDS011;1778;47.966;7.854;2023-03-21T00:04:32;2.20;;;2.10;;
3527;SDS011;1778;47.966;7.854;2023-03-21T00:05:51;1.87;;;1.87;;
3527;SDS011;1778;47.966;7.854;2023-03-21T00:06:53;2.17;;;2.07;;
3527;SDS011;1778;47.966;7.854;2023-03-21T00:07:55;2.50;;;2.30;;
3527;SDS011;1778;47.966;7.854;2023-03-21T00:08:56;1.90;;;1.90;;
3527;SDS011;1778;47.966;7.854;2023-03-21T00:09:58;1.80;;;1.80;;
3527;SDS011;1778;47.966;7.854;2023-03-21T00:11:14;1.60;;;1.60;;
3527;SDS011;1778;47.966;7.854;2023-03-21T00:12:16;1.87;;;1.87;;
3527;SDS011;1778;47.966;7.854;2023-03-21T00:13:20;1.80;;;1.80;;
3527;SDS011;1778;47.966;7.854;2023-03-21T00:14:22;1.67;;;1.67;;
3527;SDS011;1778;47.966;7.854;2023-03-21T00:15:26;8.97;;;2.00;;
3527;SDS011;1778;47.966;7.854;2023-03-21T00:16:44;2.20;;;2.20;;
3527;SDS011;1778;47.966;7.854;2023-03-21T00:17:57;10.03;;;2.07;;
3527;SDS011;1778;47.966;7.854;2023-03-21T00:19:03;1.70;;;1.70;;
3527;SDS011;1778;47.966;7.854;2023-03-21T00:20:06;1.83;;;1.83;;
3527;SDS011;1778;47.966;7.854;2023-03-21T00:23:03;1.70;;;1.70;;
3527;SDS011;1778;47.966;7.854;2023-03-21T00:24:04;1.70;;;1.70;;
3527;SDS011;1778;47.966;7.854;2023-03-21T00:25:08;1.70;;;1.70;;
3527;SDS011;1778;47.966;7.854;2023-03-21T00:26:10;1.63;;;1.63;;
3527;SDS011;1778;47.966;7.854;2023-03-21T00:27:12;2.07;;;1.97;;
3527;SDS011;1778;47.966;7.854;2023-03-21T00:28:33;4.30;;;1.90;;
3527;SDS011;1778;47.966;7.854;2023-03-21T00:29:35;1.87;;;1.87;;
3527;SDS011;1778;47.966;7.854;2023-03-21T00:30:38;1.63;;;1.63;;
3527;SDS011;1778;47.966;7.854;2023-03-21T00:31:40;1.63;;;1.63;;
3527;SDS011;1778;47.966;7.854;2023-03-21T00:32:41;2.10;;;2.00;;
3527;SDS011;1778;47.966;7.854;2023-03-21T00:33:55;1.70;;;1.70;;
3527;SDS011;1778;47.966;7.854;2023-03-21T00:34:57;1.80;;;1.80;;
3527;SDS011;1778;47.966;7.854;2023-03-21T00:36:18;1.90;;;1.90;;
3527;SDS011;1778;47.966;7.854;2023-03-21T00:37:21;2.40;;;2.30;;
3527;SDS011;1778;47.966;7.854;2023-03-21T00:38:23;1.60;;;1.60;;
3527;SDS011;1778;47.966;7.854;2023-03-21T00:39:25;1.70;;;1.70;;
3527;SDS011;1778;47.966;7.854;2023-03-21T00:40:26;1.80;;;1.80;;
3527;SDS011;1778;47.966;7.854;2023-03-21T00:41:37;1.70;;;1.70;;
3527;SDS011;1778;47.966;7.854;2023-03-21T00:42:43;1.97;;;1.97;;
3527;SDS011;1778;47.966;7.854;2023-03-21T00:43:44;1.90;;;1.90;;
3527;SDS011;1778;47.966;7.854;2023-03-21T00:44:46;2.10;;;2.00;;
3527;SDS011;1778;47.966;7.854;2023-03-21T00:45:49;2.20;;;1.83;;
3527;SDS011;1778;47.966;7.854;2023-03-21T00:46:51;2.03;;;2.03;;
3527;SDS011;1778;47.966;7.854;2023-03-21T00:48:08;1.80;;;1.80;;
3527;SDS011;1778;47.966;7.854;2023-03-21T00:49:10;2.00;;;2.00;;
3527;SDS011;1778;47.966;7.854;2023-03-21T00:50:14;2.20;;;2.10;;
3527;SDS011;1778;47.966;7.854;2023-03-21T00:51:20;2.57;;;2.37;;
3527;SDS011;1778;47.966;7.854;2023-03-21T00:52:26;3.17;;;2.10;;
3527;SDS011;1778;47.966;7.854;2023-03-21T00:53:41;1.70;;;1.70;;
3527;SDS011;1778;47.966;7.854;2023-03-21T00:54:42;2.00;;;1.90;;
3527;SDS011;1778;47.966;7.854;2023-03-21T00:55:44;2.13;;;2.03;;
3527;SDS011;1778;47.966;7.854;2023-03-21T00:56:47;1.80;;;1.80;;
3527;SDS011;1778;47.966;7.854;2023-03-21T00:57:49;8.90;;;2.10;;
3527;SDS011;1778;47.966;7.854;2023-03-21T00:59:02;1.73;;;1.73;;
3527;SDS011;1778;47.966;7.854;2023-03-21T01:00:04;1.70;;;1.70;;
3527;SDS011;1778;47.966;7.854;2023-03-21T01:01:08;1.97;;;1.87;;
3527;SDS011;1778;47.966;7.854;2023-03-21T01:02:10;1.60;;;1.60;;
3527;SDS011;1778;47.966;7.854;2023-03-21T01:03:22;1.70;;;1.70;;
3527;SDS011;1778;47.966;7.854;2023-03-21T01:04:26;1.97;;;1.97;;
3527;SDS011;1778;47.966;7.854;2023-03-21T01:05:29;1.70;;;1.70;;
3527;SDS011;1778;47.966;7.854;2023-03-21T01:06:51;1.97;;;1.97;;
3527;SDS011;1778;47.966;7.854;2023-03-21T01:07:54;1.80;;;1.80;;
3527;SDS011;1778;47.966;7.854;2023-03-21T01:08:55;1.70;;;1.70;;
3527;SDS011;1778;47.966;7.854;2023-03-21T01:09:57;2.37;;;2.17;;
3527;SDS011;1778;47.966;7.854;2023-03-21T01:11:03;1.87;;;1.87;;
3527;SDS011;1778;47.966;7.854;2023-03-21T01:12:06;1.60;;;1.60;;
3527;SDS011;1778;47.966;7.854;2023-03-21T01:13:10;1.73;;;1.70;;
3527;SDS011;1778;47.966;7.854;2023-03-21T01:14:14;1.80;;;1.80;;
3527;SDS011;1778;47.966;7.854;2023-03-21T01:15:23;1.47;;;1.47;;
3527;SDS011;1778;47.966;7.854;2023-03-21T01:16:25;1.70;;;1.70;;
3527;SDS011;1778;47.966;7.854;2023-03-21T01:17:27;1.70;;;1.70;;
3527;SDS011;1778;47.966;7.854;2023-03-21T01:18:28;1.60;;;1.60;;
3527;SDS011;1778;47.966;7.854;2023-03-21T01:19:30;1.50;;;1.50;;
3527;SDS011;1778;47.966;7.854;2023-03-21T01:20:50;2.20;;;2.20;;
3527;SDS011;1778;47.966;7.854;2023-03-21T01:21:52;1.80;;;1.80;;
3527;SDS011;1778;47.966;7.854;2023-03-21T01:22:54;1.70;;;1.70;;
3527;SDS011;1778;47.966;7.854;2023-03-21T01:23:55;1.90;;;1.90;;
3527;SDS011;1778;47.966;7.854;2023-03-21T01:24:57;1.70;;;1.70;;
3527;SDS011;1778;47.966;7.854;2023-03-21T01:26:18;1.70;;;1.70;;
3527;SDS011;1778;47.966;7.854;2023-03-21T01:27:20;1.93;;;1.93;;
3527;SDS011;1778;47.966;7.854;2023-03-21T01:28:24;1.80;;;1.80;;
3527;SDS011;1778;47.966;7.854;2023-03-21T01:29:27;1.90;;;1.90;;
3527;SDS011;1778;47.966;7.854;2023-03-21T01:30:30;10.23;;;1.97;;
3527;SDS011;1778;47.966;7.854;2023-03-21T01:31:40;2.03;;;1.93;;
3527;SDS011;1778;47.966;7.854;2023-03-21T01:32:41;1.93;;;1.93;;
3527;SDS011;1778;47.966;7.854;2023-03-21T01:33:44;1.43;;;1.43;;
3527;SDS011;1778;47.966;7.854;2023-03-21T01:34:48;1.93;;;1.93;;
3527;SDS011;1778;47.966;7.854;2023-03-21T01:35:50;1.70;;;1.70;;
3527;SDS011;1778;47.966;7.854;2023-03-21T01:37:10;1.93;;;1.93;;
3527;SDS011;1778;47.966;7.854;2023-03-21T01:38:18;2.23;;;2.00;;
3527;SDS011;1778;47.966;7.854;2023-03-21T01:39:21;1.77;;;1.77;;
3527;SDS011;1778;47.966;7.854;2023-03-21T01:40:24;2.00;;;2.00;;
3527;SDS011;1778;47.966;7.854;2023-03-21T01:41:39;2.10;;;2.10;;
3527;SDS011;1778;47.966;7.854;2023-03-21T01:42:50;1.93;;;1.93;;
3527;SDS011;1778;47.966;7.854;2023-03-21T01:43:54;1.73;;;1.73;;
3527;SDS011;1778;47.966;7.854;2023-03-21T01:45:04;2.20;;;2.20;;
3527;SDS011;1778;47.966;7.854;2023-03-21T01:54:16;2.17;;;2.17;;
3527;SDS011;1778;47.966;7.854;2023-03-21T01:55:25;1.87;;;1.77;;
3527;SDS011;1778;47.966;7.854;2023-03-21T01:56:33;1.97;;;1.97;;
3527;SDS011;1778;47.966;7.854;2023-03-21T01:57:42;2.00;;;1.90;;
3527;SDS011;1778;47.966;7.854;2023-03-21T01:59:11;1.80;;;1.80;;
3527;SDS011;1778;47.966;7.854;2023-03-21T02:00:53;1.80;;;1.80;;
3527;SDS011;1778;47.966;7.854;2023-03-21T02:02:18;1.90;;;1.90;;
3527;SDS011;1778;47.966;7.854;2023-03-21T02:03:33;1.90;;;1.90;;
3527;SDS011;1778;47.966;7.854;2023-03-21T02:05:09;1.87;;;1.83;;
3527;SDS011;1778;47.966;7.854;2023-03-21T02:06:11;2.07;;;2.07;;
3527;SDS011;1778;47.966;7.854;2023-03-21T02:07:24;2.13;;;2.13;;
3527;SDS011;1778;47.966;7.854;2023-03-21T02:08:36;2.20;;;2.20;;
3527;SDS011;1778;47.966;7.854;2023-03-21T02:09:45;2.13;;;2.13;;
3527;SDS011;1778;47.966;7.854;2023-03-21T02:10:52;1.90;;;1.90;;
3527;SDS011;1778;47.966;7.854;2023-03-21T02:12:06;2.53;;;1.87;;
3527;SDS011;1778;47.966;7.854;2023-03-21T02:13:11;1.70;;;1.70;;
3527;SDS011;1778;47.966;7.854;2023-03-21T02:14:15;1.97;;;1.97;;
3527;SDS011;1778;47.966;7.854;2023-03-21T02:15:37;2.10;;;2.10;;
3527;SDS011;1778;47.966;7.854;2023-03-21T02:18:23;2.60;;;2.40;;
3527;SDS011;1778;47.966;7.854;2023-03-21T02:24:45;2.33;;;2.23;;
3527;SDS011;1778;47.966;7.854;2023-03-21T02:31:59;2.10;;;2.10;;
3527;SDS011;1778;47.966;7.854;2023-03-21T02:37:38;2.50;;;2.40;;
3527;SDS011;1778;47.966;7.854;2023-03-21T02:40:28;2.30;;;2.30;;
3527;SDS011;1778;47.966;7.854;2023-03-21T02:41:39;2.10;;;2.10;;
3527;SDS011;1778;47.966;7.854;2023-03-21T02:43:09;1.80;;;1.80;;
3527;SDS011;1778;47.966;7.854;2023-03-21T02:44:38;1.90;;;1.90;;
3527;SDS011;1778;47.966;7.854;2023-03-21T02:45:48;2.10;;;2.10;;
3527;SDS011;1778;47.966;7.854;2023-03-21T02:47:01;1.70;;;1.70;;
3527;SDS011;1778;47.966;7.854;2023-03-21T02:48:12;2.13;;;2.13;;
3527;SDS011;1778;47.966;7.854;2023-03-21T02:50:50;2.10;;;2.10;;
3527;SDS011;1778;47.966;7.854;2023-03-21T02:52:11;1.93;;;1.93;;
3527;SDS011;1778;47.966;7.854;2023-03-21T02:53:36;1.97;;;1.97;;
3527;SDS011;1778;47.966;7.854;2023-03-21T02:54:41;1.87;;;1.87;;
3527;SDS011;1778;47.966;7.854;2023-03-21T02:55:58;2.10;;;2.10;;
3527;SDS011;1778;47.966;7.854;2023-03-21T02:57:03;2.67;;;2.47;;
3527;SDS011;1778;47.966;7.854;2023-03-21T02:58:07;2.00;;;2.00;;
3527;SDS011;1778;47.966;7.854;2023-03-21T02:59:18;1.90;;;1.90;;
3527;SDS011;1778;47.966;7.854;2023-03-21T03:00:27;2.00;;;2.00;;
3527;SDS011;1778;47.966;7.854;2023-03-21T03:01:31;2.00;;;2.00;;
3527;SDS011;1778;47.966;7.854;2023-03-21T03:02:34;2.70;;;2.60;;
3527;SDS011;1778;47.966;7.854;2023-03-21T03:03:36;2.63;;;2.43;;
3527;SDS011;1778;47.966;7.854;2023-03-21T03:04:39;2.07;;;2.07;;
3527;SDS011;1778;47.966;7.854;2023-03-21T03:05:47;2.93;;;2.73;;
3527;SDS011;1778;47.966;7.854;2023-03-21T03:09:18;2.20;;;2.20;;
3527;SDS011;1778;47.966;7.854;2023-03-21T03:12:45;2.27;;;2.27;;
3527;SDS011;1778;47.966;7.854;2023-03-21T03:20:03;1.83;;;1.83;;
3527;SDS011;1778;47.966;7.854;2023-03-21T03:22:33;2.30;;;2.30;;
3527;SDS011;1778;47.966;7.854;2023-03-21T03:23:54;1.93;;;1.93;;
3527;SDS011;1778;47.966;7.854;2023-03-21T03:25:04;2.10;;;2.10;;
3527;SDS011;1778;47.966;7.854;2023-03-21T03:26:33;2.03;;;2.03;;
3527;SDS011;1778;47.966;7.854;2023-03-21T03:27:36;2.40;;;2.30;;
3527;SDS011;1778;47.966;7.854;2023-03-21T03:28:43;2.47;;;2.37;;
3527;SDS011;1778;47.966;7.854;2023-03-21T03:29:50;2.37;;;2.27;;
3527;SDS011;1778;47.966;7.854;2023-03-21T03:30:57;2.87;;;2.77;;
3527;SDS011;1778;47.966;7.854;2023-03-21T03:32:19;2.40;;;2.30;;
3527;SDS011;1778;47.966;7.854;2023-03-21T03:33:25;3.90;;;2.30;;
3527;SDS011;1778;47.966;7.854;2023-03-21T03:34:29;2.60;;;2.60;;
3527;SDS011;1778;47.966;7.854;2023-03-21T03:35:35;2.60;;;2.50;;
3527;SDS011;1778;47.966;7.854;2023-03-21T03:36:38;2.63;;;2.53;;
3527;SDS011;1778;47.966;7.854;2023-03-21T03:37:48;2.77;;;2.77;;
3527;SDS011;1778;47.966;7.854;2023-03-21T03:38:54;2.40;;;2.40;;
3527;SDS011;1778;47.966;7.854;2023-03-21T03:40:02;2.40;;;2.30;;
3527;SDS011;1778;47.966;7.854;2023-03-21T03:41:20;2.77;;;2.67;;
3527;SDS011;1778;47.966;7.854;2023-03-21T03:42:34;3.10;;;3.00;;
3527;SDS011;1778;47.966;7.854;2023-03-21T03:43:55;2.63;;;2.63;;
3527;SDS011;1778;47.966;7.854;2023-03-21T03:45:03;3.13;;;2.93;;
3527;SDS011;1778;47.966;7.854;2023-03-21T03:47:33;2.50;;;2.50;;
3527;SDS011;1778;47.966;7.854;2023-03-21T03:49:12;3.60;;;2.70;;
3527;SDS011;1778;47.966;7.854;2023-03-21T03:51:47;4.90;;;2.30;;
3527;SDS011;1778;47.966;7.854;2023-03-21T03:53:06;2.90;;;2.80;;
3527;SDS011;1778;47.966;7.854;2023-03-21T03:54:27;2.77;;;2.57;;
3527;SDS011;1778;47.966;7.854;2023-03-21T03:55:35;2.87;;;2.77;;
3527;SDS011;1778;47.966;7.854;2023-03-21T03:56:43;3.03;;;2.93;;
3527;SDS011;1778;47.966;7.854;2023-03-21T03:57:46;2.40;;;2.40;;
3527;SDS011;1778;47.966;7.854;2023-03-21T03:58:48;2.60;;;2.60;;
3527;SDS011;1778;47.966;7.854;2023-03-21T03:59:53;2.67;;;2.67;;
3527;SDS011;1778;47.966;7.854;2023-03-21T04:00:59;3.00;;;2.90;;
3527;SDS011;1778;47.966;7.854;2023-03-21T04:02:00;2.53;;;2.47;;
3527;SDS011;1778;47.966;7.854;2023-03-21T04:03:02;2.70;;;2.60;;
3527;SDS011;1778;47.966;7.854;2023-03-21T04:04:07;2.50;;;2.50;;
3527;SDS011;1778;47.966;7.854;2023-03-21T04:05:16;3.10;;;3.00;;
3527;SDS011;1778;47.966;7.854;2023-03-21T04:06:21;3.23;;;3.13;;
3527;SDS011;1778;47.966;7.854;2023-03-21T04:07:24;2.60;;;2.60;;
3527;SDS011;1778;47.966;7.854;2023-03-21T04:08:30;2.70;;;2.70;;
3527;SDS011;1778;47.966;7.854;2023-03-21T04:09:32;2.87;;;2.77;;
3527;SDS011;1778;47.966;7.854;2023-03-21T04:10:45;2.60;;;2.60;;
3527;SDS011;1778;47.966;7.854;2023-03-21T04:11:47;2.97;;;2.97;;
3527;SDS011;1778;47.966;7.854;2023-03-21T04:12:48;2.90;;;2.90;;
3527;SDS011;1778;47.966;7.854;2023-03-21T04:14:01;2.90;;;2.80;;
3527;SDS011;1778;47.966;7.854;2023-03-21T04:15:03;3.17;;;3.07;;
3527;SDS011;1778;47.966;7.854;2023-03-21T04:16:18;2.80;;;2.70;;
3527;SDS011;1778;47.966;7.854;2023-03-21T04:17:20;2.83;;;2.83;;
3527;SDS011;1778;47.966;7.854;2023-03-21T04:18:22;2.93;;;2.83;;
3527;SDS011;1778;47.966;7.854;2023-03-21T04:19:24;3.03;;;2.93;;
3527;SDS011;1778;47.966;7.854;2023-03-21T04:20:26;2.90;;;2.90;;
3527;SDS011;1778;47.966;7.854;2023-03-21T04:21:38;3.17;;;3.07;;
3527;SDS011;1778;47.966;7.854;2023-03-21T04:22:39;2.87;;;2.80;;
3527;SDS011;1778;47.966;7.854;2023-03-21T04:23:41;2.90;;;2.90;;
3527;SDS011;1778;47.966;7.854;2023-03-21T04:24:42;2.53;;;2.53;;
3527;SDS011;1778;47.966;7.854;2023-03-21T04:25:46;3.33;;;3.23;;
3527;SDS011;1778;47.966;7.854;2023-03-21T04:27:01;2.87;;;2.87;;
3527;SDS011;1778;47.966;7.854;2023-03-21T04:28:14;2.90;;;2.90;;
3527;SDS011;1778;47.966;7.854;2023-03-21T04:29:20;2.47;;;2.40;;
3527;SDS011;1778;47.966;7.854;2023-03-21T04:30:42;2.53;;;2.53;;
3527;SDS011;1778;47.966;7.854;2023-03-21T04:32:03;2.87;;;2.77;;
3527;SDS011;1778;47.966;7.854;2023-03-21T04:33:06;2.80;;;2.80;;
3527;SDS011;1778;47.966;7.854;2023-03-21T04:34:08;2.83;;;2.43;;
3527;SDS011;1778;47.966;7.854;2023-03-21T04:35:16;2.67;;;2.57;;
3527;SDS011;1778;47.966;7.854;2023-03-21T04:36:17;2.70;;;2.70;;
3527;SDS011;1778;47.966;7.854;2023-03-21T04:37:31;2.90;;;2.80;;
3527;SDS011;1778;47.966;7.854;2023-03-21T04:38:35;2.70;;;2.70;;
3527;SDS011;1778;47.966;7.854;2023-03-21T04:39:37;3.10;;;3.00;;
3527;SDS011;1778;47.966;7.854;2023-03-21T04:40:39;9.43;;;2.50;;
3527;SDS011;1778;47.966;7.854;2023-03-21T04:41:41;2.83;;;2.73;;
3527;SDS011;1778;47.966;7.854;2023-03-21T04:42:44;2.40;;;2.40;;
3527;SDS011;1778;47.966;7.854;2023-03-21T04:43:47;3.27;;;3.10;;
3527;SDS011;1778;47.966;7.854;2023-03-21T04:44:48;3.00;;;2.90;;
3527;SDS011;1778;47.966;7.854;2023-03-21T04:45:50;2.80;;;2.80;;
3527;SDS011;1778;47.966;7.854;2023-03-21T04:46:52;2.70;;;2.70;;
3527;SDS011;1778;47.966;7.854;2023-03-21T04:47:54;3.03;;;2.90;;
3527;SDS011;1778;47.966;7.854;2023-03-21T04:48:57;3.10;;;3.00;;
3527;SDS011;1778;47.966;7.854;2023-03-21T04:49:59;2.40;;;2.40;;
3527;SDS011;1778;47.966;7.854;2023-03-21T04:51:01;2.27;;;2.27;;
3527;SDS011;1778;47.966;7.854;2023-03-21T04:52:04;2.47;;;2.47;;
3527;SDS011;1778;47.966;7.854;2023-03-21T04:53:07;2.70;;;2.70;;
3527;SDS011;1778;47.966;7.854;2023-03-21T04:54:09;2.60;;;2.60;;
3527;SDS011;1778;47.966;7.854;2023-03-21T04:55:10;2.80;;;2.70;;
3527;SDS011;1778;47.966;7.854;2023-03-21T04:56:12;2.53;;;2.53;;
3527;SDS011;1778;47.966;7.854;2023-03-21T04:57:14;2.70;;;2.70;;
3527;SDS011;1778;47.966;7.854;2023-03-21T04:58:16;3.20;;;3.20;;
3527;SDS011;1778;47.966;7.854;2023-03-21T04:59:20;2.70;;;2.60;;
3527;SDS011;1778;47.966;7.854;2023-03-21T05:00:21;2.43;;;2.43;;
3527;SDS011;1778;47.966;7.854;2023-03-21T05:01:24;2.90;;;2.90;;
3527;SDS011;1778;47.966;7.854;2023-03-21T05:02:30;3.73;;;3.63;;
3527;SDS011;1778;47.966;7.854;2023-03-21T05:03:32;3.40;;;3.40;;
3527;SDS011;1778;47.966;7.854;2023-03-21T05:04:40;3.37;;;3.27;;
3527;SDS011;1778;47.966;7.854;2023-03-21T05:05:41;3.57;;;3.37;;
3527;SDS011;1778;47.966;7.854;2023-03-21T05:06:44;2.90;;;2.90;;
3527;SDS011;1778;47.966;7.854;2023-03-21T05:07:49;11.63;;;2.90;;
3527;SDS011;1778;47.966;7.854;2023-03-21T05:08:50;3.07;;;3.07;;
3527;SDS011;1778;47.966;7.854;2023-03-21T05:09:52;3.20;;;3.10;;
3527;SDS011;1778;47.966;7.854;2023-03-21T05:10:53;5.33;;;3.53;;
3527;SDS011;1778;47.966;7.854;2023-03-21T05:11:58;3.10;;;3.10;;
3527;SDS011;1778;47.966;7.854;2023-03-21T05:13:02;3.40;;;3.30;;
3527;SDS011;1778;47.966;7.854;2023-03-21T05:14:06;3.47;;;3.13;;
3527;SDS011;1778;47.966;7.854;2023-03-21T05:15:10;2.87;;;2.77;;
3527;SDS011;1778;47.966;7.854;2023-03-21T05:16:11;2.80;;;2.80;;
3527;SDS011;1778;47.966;7.854;2023-03-21T05:17:13;3.03;;;3.03;;
3527;SDS011;1778;47.966;7.854;2023-03-21T05:18:23;2.60;;;2.60;;
3527;SDS011;1778;47.966;7.854;2023-03-21T05:19:39;2.80;;;2.70;;
3527;SDS011;1778;47.966;7.854;2023-03-21T05:20:41;2.87;;;2.77;;
3527;SDS011;1778;47.966;7.854;2023-03-21T05:21:43;2.93;;;2.90;;
3527;SDS011;1778;47.966;7.854;2023-03-21T05:22:57;2.70;;;2.70;;
3527;SDS011;1778;47.966;7.854;2023-03-21T05:23:59;3.37;;;3.27;;
3527;SDS011;1778;47.966;7.854;2023-03-21T05:25:07;2.83;;;2.73;;
3527;SDS011;1778;47.966;7.854;2023-03-21T05:26:21;3.30;;;3.20;;
3527;SDS011;1778;47.966;7.854;2023-03-21T05:27:32;2.93;;;2.83;;
3527;SDS011;1778;47.966;7.854;2023-03-21T05:28:38;3.20;;;3.20;;
3527;SDS011;1778;47.966;7.854;2023-03-21T05:29:41;3.40;;;3.30;;
3527;SDS011;1778;47.966;7.854;2023-03-21T05:30:44;2.80;;;2.80;;
3527;SDS011;1778;47.966;7.854;2023-03-21T05:31:46;3.10;;;3.00;;
3527;SDS011;1778;47.966;7.854;2023-03-21T05:32:48;3.17;;;2.97;;
3527;SDS011;1778;47.966;7.854;2023-03-21T05:33:52;3.37;;;3.10;;
3527;SDS011;1778;47.966;7.854;2023-03-21T05:34:54;2.57;;;2.57;;
3527;SDS011;1778;47.966;7.854;2023-03-21T05:35:56;2.90;;;2.90;;
3527;SDS011;1778;47.966;7.854;2023-03-21T05:37:02;3.03;;;3.00;;
3527;SDS011;1778;47.966;7.854;2023-03-21T05:38:15;3.17;;;3.17;;
3527;SDS011;1778;47.966;7.854;2023-03-21T05:39:24;3.10;;;3.00;;
3527;SDS011;1778;47.966;7.854;2023-03-21T05:40:47;3.13;;;3.07;;
3527;SDS011;1778;47.966;7.854;2023-03-21T05:41:50;2.60;;;2.60;;
3527;SDS011;1778;47.966;7.854;2023-03-21T05:42:51;2.87;;;2.87;;
3527;SDS011;1778;47.966;7.854;2023-03-21T05:43:56;3.20;;;3.10;;
3527;SDS011;1778;47.966;7.854;2023-03-21T05:44:57;3.43;;;3.33;;
3527;SDS011;1778;47.966;7.854;2023-03-21T05:46:04;2.70;;;2.70;;
3527;SDS011;1778;47.966;7.854;2023-03-21T05:47:06;2.87;;;2.87;;
3527;SDS011;1778;47.966;7.854;2023-03-21T05:48:16;3.23;;;3.13;;
3527;SDS011;1778;47.966;7.854;2023-03-21T05:49:38;3.20;;;3.10;;
3527;SDS011;1778;47.966;7.854;2023-03-21T05:50:39;2.90;;;2.80;;
3527;SDS011;1778;47.966;7.854;2023-03-21T05:51:48;2.90;;;2.90;;
3527;SDS011;1778;47.966;7.854;2023-03-21T05:52:51;2.63;;;2.63;;
3527;SDS011;1778;47.966;7.854;2023-03-21T05:53:52;2.90;;;2.70;;
3527;SDS011;1778;47.966;7.854;2023-03-21T05:54:55;2.80;;;2.80;;
3527;SDS011;1778;47.966;7.854;2023-03-21T05:55:57;2.57;;;2.57;;
3527;SDS011;1778;47.966;7.854;2023-03-21T05:57:14;2.60;;;2.60;;
3527;SDS011;1778;47.966;7.854;2023-03-21T05:58:28;2.63;;;2.63;;
3527;SDS011;1778;47.966;7.854;2023-03-21T05:59:30;2.47;;;2.47;;
3527;SDS011;1778;47.966;7.854;2023-03-21T06:00:32;2.33;;;2.33;;
3527;SDS011;1778;47.966;7.854;2023-03-21T06:01:49;2.50;;;2.40;;
3527;SDS011;1778;47.966;7.854;2023-03-21T06:02:50;3.43;;;3.23;;
3527;SDS011;1778;47.966;7.854;2023-03-21T06:04:06;3.03;;;2.93;;
3527;SDS011;1778;47.966;7.854;2023-03-21T06:05:09;2.63;;;2.63;;
3527;SDS011;1778;47.966;7.854;2023-03-21T06:06:11;3.10;;;2.90;;
3527;SDS011;1778;47.966;7.854;2023-03-21T06:07:20;2.67;;;2.60;;
3527;SDS011;1778;47.966;7.854;2023-03-21T06:08:23;2.83;;;2.83;;
3527;SDS011;1778;47.966;7.854;2023-03-21T06:09:25;2.43;;;2.33;;
3527;SDS011;1778;47.966;7.854;2023-03-21T06:10:31;2.57;;;2.57;;
3527;SDS011;1778;47.966;7.854;2023-03-21T06:11:36;3.00;;;2.90;;
3527;SDS011;1778;47.966;7.854;2023-03-21T06:12:53;2.67;;;2.67;;
3527;SDS011;1778;47.966;7.854;2023-03-21T06:14:01;2.30;;;2.30;;
3527;SDS011;1778;47.966;7.854;2023-03-21T06:15:04;2.33;;;2.33;;
3527;SDS011;1778;47.966;7.854;2023-03-21T06:16:17;2.53;;;2.53;;
3527;SDS011;1778;47.966;7.854;2023-03-21T06:17:19;2.60;;;2.60;;
3527;SDS011;1778;47.966;7.854;2023-03-21T06:18:26;2.90;;;2.80;;
3527;SDS011;1778;47.966;7.854;2023-03-21T06:19:35;2.67;;;2.60;;
3527;SDS011;1778;47.966;7.854;2023-03-21T06:20:40;2.53;;;2.43;;
3527;SDS011;1778;47.966;7.854;2023-03-21T06:21:44;2.67;;;2.67;;
3527;SDS011;1778;47.966;7.854;2023-03-21T06:22:47;3.00;;;2.90;;
3527;SDS011;1778;47.966;7.854;2023-03-21T06:23:48;2.10;;;2.10;;
3527;SDS011;1778;47.966;7.854;2023-03-21T06:25:18;2.43;;;2.33;;
3527;SDS011;1778;47.966;7.854;2023-03-21T06:26:19;3.20;;;3.10;;
3527;SDS011;1778;47.966;7.854;2023-03-21T06:27:25;3.10;;;2.90;;
3527;SDS011;1778;47.966;7.854;2023-03-21T06:28:28;2.20;;;2.20;;
3527;SDS011;1778;47.966;7.854;2023-03-21T06:29:30;6.30;;;3.07;;
3527;SDS011;1778;47.966;7.854;2023-03-21T06:30:31;2.57;;;2.53;;
3527;SDS011;1778;47.966;7.854;2023-03-21T06:31:43;2.87;;;2.87;;
3527;SDS011;1778;47.966;7.854;2023-03-21T06:32:45;2.70;;;2.60;;
3527;SDS011;1778;47.966;7.854;2023-03-21T06:33:50;2.60;;;2.50;;
3527;SDS011;1778;47.966;7.854;2023-03-21T06:34:52;3.40;;;2.60;;
3527;SDS011;1778;47.966;7.854;2023-03-21T06:35:54;2.87;;;2.67;;
3527;SDS011;1778;47.966;7.854;2023-03-21T06:36:58;2.47;;;2.47;;
3527;SDS011;1778;47.966;7.854;2023-03-21T06:38:04;3.00;;;2.80;;
3527;SDS011;1778;47.966;7.854;2023-03-21T06:39:07;2.63;;;2.53;;
3527;SDS011;1778;47.966;7.854;2023-03-21T06:40:12;2.97;;;2.67;;
3527;SDS011;1778;47.966;7.854;2023-03-21T06:41:14;2.70;;;2.60;;
3527;SDS011;1778;47.966;7.854;2023-03-21T06:42:24;4.60;;;4.30;;
3527;SDS011;1778;47.966;7.854;2023-03-21T06:43:32;2.50;;;2.40;;
3527;SDS011;1778;47.966;7.854;2023-03-21T06:44:36;2.57;;;2.47;;
3527;SDS011;1778;47.966;7.854;2023-03-21T06:45:44;2.30;;;2.30;;
3527;SDS011;1778;47.966;7.854;2023-03-21T06:46:46;2.20;;;2.20;;
3527;SDS011;1778;47.966;7.854;2023-03-21T06:47:50;2.40;;;2.30;;
3527;SDS011;1778;47.966;7.854;2023-03-21T06:49:17;2.60;;;2.50;;
3527;SDS011;1778;47.966;7.854;2023-03-21T06:50:18;2.63;;;2.53;;
3527;SDS011;1778;47.966;7.854;2023-03-21T06:51:20;2.30;;;2.20;;
3527;SDS011;1778;47.966;7.854;2023-03-21T06:52:38;2.50;;;2.30;;
3527;SDS011;1778;47.966;7.854;2023-03-21T06:53:40;2.10;;;2.00;;
3527;SDS011;1778;47.966;7.854;2023-03-21T06:54:53;2.27;;;2.27;;
3527;SDS011;1778;47.966;7.854;2023-03-21T06:55:56;2.73;;;2.63;;
3527;SDS011;1778;47.966;7.854;2023-03-21T06:56:57;2.20;;;2.20;;
3527;SDS011;1778;47.966;7.854;2023-03-21T06:58:03;2.30;;;2.10;;
3527;SDS011;1778;47.966;7.854;2023-03-21T06:59:05;2.50;;;2.50;;
3527;SDS011;1778;47.966;7.854;2023-03-21T07:00:24;2.90;;;2.70;;
3527;SDS011;1778;47.966;7.854;2023-03-21T07:01:26;2.07;;;2.00;;
3527;SDS011;1778;47.966;7.854;2023-03-21T07:02:37;2.10;;;2.00;;
3527;SDS011;1778;47.966;7.854;2023-03-21T07:03:44;2.10;;;2.10;;
3527;SDS011;1778;47.966;7.854;2023-03-21T07:04:45;2.10;;;2.10;;
3527;SDS011;1778;47.966;7.854;2023-03-21T07:05:52;1.97;;;1.97;;
3527;SDS011;1778;47.966;7.854;2023-03-21T07:06:54;2.30;;;2.20;;
3527;SDS011;1778;47.966;7.854;2023-03-21T07:07:56;2.00;;;2.00;;
3527;SDS011;1778;47.966;7.854;2023-03-21T07:09:01;2.17;;;2.07;;
3527;SDS011;1778;47.966;7.854;2023-03-21T07:10:06;2.00;;;2.00;;
3527;SDS011;1778;47.966;7.854;2023-03-21T07:11:25;2.20;;;2.10;;
3527;SDS011;1778;47.966;7.854;2023-03-21T07:12:26;3.70;;;3.50;;
3527;SDS011;1778;47.966;7.854;2023-03-21T07:13:50;1.70;;;1.70;;
3527;SDS011;1778;47.966;7.854;2023-03-21T07:14:52;3.13;;;2.20;;
3527;SDS011;1778;47.966;7.854;2023-03-21T07:15:53;1.83;;;1.83;;
3527;SDS011;1778;47.966;7.854;2023-03-21T07:16:56;2.00;;;2.00;;
3527;SDS011;1778;47.966;7.854;2023-03-21T07:17:58;2.07;;;2.07;;
3527;SDS011;1778;47.966;7.854;2023-03-21T07:19:00;1.83;;;1.83;;
3527;SDS011;1778;47.966;7.854;2023-03-21T07:20:01;1.90;;;1.90;;
3527;SDS011;1778;47.966;7.854;2023-03-21T07:21:07;2.07;;;1.97;;
3527;SDS011;1778;47.966;7.854;2023-03-21T07:22:10;1.90;;;1.90;;
3527;SDS011;1778;47.966;7.854;2023-03-21T07:23:12;2.00;;;1.90;;
3527;SDS011;1778;47.966;7.854;2023-03-21T07:24:13;5.40;;;4.10;;
3527;SDS011;1778;47.966;7.854;2023-03-21T07:25:15;2.10;;;2.10;;
3527;SDS011;1778;47.966;7.854;2023-03-21T07:26:17;1.60;;;1.60;;
3527;SDS011;1778;47.966;7.854;2023-03-21T07:27:18;2.10;;;2.07;;
3527;SDS011;1778;47.966;7.854;2023-03-21T07:28:21;1.70;;;1.70;;
3527;SDS011;1778;47.966;7.854;2023-03-21T07:29:23;2.13;;;2.00;;
3527;SDS011;1778;47.966;7.854;2023-03-21T07:30:25;2.30;;;2.20;;
3527;SDS011;1778;47.966;7.854;2023-03-21T07:31:27;2.47;;;2.37;;
3527;SDS011;1778;47.966;7.854;2023-03-21T07:32:32;2.30;;;2.20;;
3527;SDS011;1778;47.966;7.854;2023-03-21T07:33:35;1.97;;;1.97;;
3527;SDS011;1778;47.966;7.854;2023-03-21T07:34:36;1.90;;;1.90;;
3527;SDS011;1778;47.966;7.854;2023-03-21T07:35:38;1.73;;;1.63;;
3527;SDS011;1778;47.966;7.854;2023-03-21T07:36:40;2.17;;;2.17;;
3527;SDS011;1778;47.966;7.854;2023-03-21T07:37:42;1.50;;;1.50;;
3527;SDS011;1778;47.966;7.854;2023-03-21T07:38:48;2.30;;;2.20;;
3527;SDS011;1778;47.966;7.854;2023-03-21T07:39:54;1.90;;;1.67;;